Colerne, United Kingdom
Current Conditions -  °F | °C
As of 4:20 PM on Thursday 18 Dec 2014 (Local Time) from EGGD Reporting Station
Rain Showers Rain Showers  
Wind Chill: 52°   Ceiling: 800
Heat Index: 52°   Visibility: 6mi
Dew Point: 50°   Wind: 20mph
Humidity: 94%   Direction: 230°SW
Pressure: 29.85"   Gusts: NA
Location:  51.44°N, 2.26°W
Report Text: EGGD 181620Z 23017KT 9000 VCSH BKN008 11/10 Q1011
Loading
Personal Weather Stations






























Interactive Weather Map New forecast layout! Learn more

10-Day Weather Forecast

Advertisements
Track Severe Weather on mobile